ADDS TAF Board (Experimental) INFO

IDs: Format: Expanded Condensed

Updated at: 0301 UTC 23 Oct 2014

KBOS - Boston/Logan Intl, MA, US

Issued at 0221 UTC 23 Oct 2014
Time0254Z23/03Z23/04Z23/05Z23/06Z23/07Z23/08Z23/09Z23/10Z23/11Z23/12Z23/13Z23/14Z23/15Z
TypeOBSPRVLPRVLPRVLPRVLPRVLPRVLPRVLPRVLPRVLPRVLPRVLPRVLPRVL
VIS33333333333333
CIG10888888888881010
CoverOVCOVCOVCOVCOVCOVCOVCOVCOVCOVCOVCOVCOVCOVC
FltCatMVFRIFRIFRIFRIFRIFRIFRIFRIFRIFRIFRIFRMVFRMVFR
WXRA BRSHRA BRSHRA BRSHRA BRSHRA BRSHRA BRSHRA BRSHRA BRSHRA BRSHRA BRSHRA BRSHRA BR-RA BR-RA BR
WDir4030303030303030303030302020
WSpd2825252525252525252525251818
WGst4240404040404040404040403232
R04/22
XWnd-10-4-4-4-4-4-4-4-4-4-4-400
XGst-14-7-7-7-7-7-7-7-7-7-7-700
HWnd2625252525252525252525251818
HGst3939393939393939393939393232
R09/27
XWnd1718181818181818181818181515
XGst2529292929292929292929292727
HWnd2217171717171717171717171010
HGst3427272727272727272727271717
R14/32
XWnd2825252525252525252525251717
XGst4240404040404040404040403131
HWnd2-2-2-2-2-2-2-2-2-2-2-2-5-5
HGst4-3-3-3-3-3-3-3-3-3-3-3-8-8
R15/33
XWnd2824242424242424242424241616
XGst4239393939393939393939392929
HWnd-2-6-6-6-6-6-6-6-6-6-6-6-8-8
HGst-4-10-10-10-10-10-10-10-10-10-10-10-14-14
Raw TAF
KBOS 230221Z 2302/2406 03032G45KT 2SM SHRA BR VCTS BKN009 OVC013CB
  FM230300 03025G40KT 3SM SHRA BR OVC008
  FM231400 02018G32KT 3SM -RA BR OVC010
  FM240000 36014G22KT 6SM -SHRA OVC015
  FM240300 36016KT 6SM -SHRA OVC010
  FM240500 35015KT P6SM OVC010


Raw METAR
KBOS 230254Z 04028G42KT 3SM RA BR OVC010 11/09 A2980 RMK AO2 PK WND 04047/0238 TSB05E53 SLP090 TS MOVD NW P0011 60016 T01060094 55009
KBOS 230244Z 03030G47KT 3SM -TSRA BR BKN009 OVC014CB 11/09 A2980 RMK AO2 PK WND 04047/0238 TSB05 OCNL LTGICCC SW TS SW MOV NW P0010
KBOS 230226Z 03035G43KT 2SM R04R/6000VP6000FT TSRA BR BKN009 OVC013CB 11/10 A2978 RMK AO2 PK WND 03044/0215 TSB05 OCNL LTGICCC S-W TS S-W MOV NW P0009
KBOS 230212Z 03032G44KT 3SM -TSRA BR BKN009 OVC013CB 11/10 A2979 RMK AO2 PK WND 03044/0212 TSB05 OCNL LTGICCC TS SW MOV NE P0004
KBOS 230205Z COR 03031G43KT 1 3/4SM -TSRA BR BKN009 OVC013CB 11/10 A2980 RMK AO2 PK WND 04044/0155 TSB05 OCNL LTGICCC TS SW MOV NE P0004
KBOS 230154Z 03030G45KT 1 3/4SM +RA BR OVC009 11/10 A2979 RMK AO2 PK WND 04046/0143 RAE13B40DZB26E40 SLP088 P0002 T01060100
KBOS 230152Z 03031G46KT 1 3/4SM +RA BR OVC009 11/09 A2980 RMK AO2 PK WND 04046/0143 RAE13B40DZB26E40 P0002
KBOS 230132Z 03034G44KT 4SM -DZ BR BKN009 OVC014 11/10 A2980 RMK AO2 PK WND 03044/0130 RAE13DZB26 P0000

TAF Board Legend

Hazard VFR MVFR IFR LIFR
Visibility (sm) >5 3≤X≤5 1≤X<3 <1
Ceiling (100 ft) >30 10≤X≤30 5≤X<10 <5
Wind Speed (kt) <10 10≤X<20 20≤X<30 ≥30
Wind Gust (kt) <15 15≤X<25 25≤X<35 ≥35
Weather No Wx Reported VCTS,-TS,-FZRA TS,FZRA +TS,+FZRA


Page loaded:  03:01 UTC  |   08:01 PM Pacific  |   09:01 PM Mountain  |   10:01 PM Central  |   11:01 PM Eastern

 

ADVISORIES

FORECASTS

FORECASTS

OBSERVATIONS

USER TOOLS

ABOUT US